Time;durP1;ratioP1;P1;durP2;ratioP2;P2;SDS_P1;SDS_P2;PMS_P1;PMS_P2;Temp;Humidity;BMP_temperature;BMP_pressure;BME280_temperature;BME280_humidity;BME280_pressure;Samples;Min_cycle;Max_cycle;Signal;HPM_P1;HPM_P2
2021/11/29 00:01:44;;;;;;;21.30;13.60;;;2.80;99.90;;;;;;4966652;28;20460;-64
2021/11/29 00:04:11;;;;;;;19.10;13.13;;;2.80;99.90;;;;;;4966737;28;20452;-64
2021/11/29 00:06:38;;;;;;;19.30;13.97;;;2.80;99.90;;;;;;4967167;28;20823;-60
2021/11/29 00:09:05;;;;;;;24.27;14.63;;;2.80;99.90;;;;;;4968208;28;20473;-64
2021/11/29 00:11:34;;;;;;;21.37;15.20;;;2.70;99.90;;;;;;4969049;28;20469;-63
2021/11/29 00:14:01;;;;;;;24.50;17.10;;;2.70;99.90;;;;;;4968538;28;20821;-64
2021/11/29 00:16:28;;;;;;;22.20;16.50;;;2.70;99.90;;;;;;4968492;28;20464;-64
2021/11/29 00:18:55;;;;;;;23.83;16.47;;;2.70;99.90;;;;;;4968739;28;21013;-65
2021/11/29 00:21:22;;;;;;;25.70;17.83;;;2.70;99.90;;;;;;4968989;28;20455;-64
2021/11/29 00:23:49;;;;;;;25.13;17.30;;;2.70;99.90;;;;;;4969122;28;20452;-64
2021/11/29 00:26:19;;;;;;;30.70;20.20;;;2.70;99.90;;;;;;4968513;28;20458;-65
2021/11/29 00:28:47;;;;;;;29.43;18.73;;;2.70;99.90;;;;;;4968906;28;20473;-64
2021/11/29 00:31:14;;;;;;;26.80;18.80;;;2.70;99.90;;;;;;4968770;28;21006;-64
2021/11/29 00:33:41;;;;;;;30.87;18.77;;;2.70;99.90;;;;;;4966913;28;20483;-65
2021/11/29 00:36:08;;;;;;;30.20;19.23;;;2.60;99.90;;;;;;4968613;28;20455;-64
2021/11/29 00:38:36;;;;;;;27.37;19.10;;;2.70;99.90;;;;;;4968259;28;20935;-64
2021/11/29 00:41:03;;;;;;;28.70;19.27;;;2.70;99.90;;;;;;4968462;28;20451;-64
2021/11/29 00:43:29;;;;;;;30.80;21.27;;;2.70;99.90;;;;;;4968527;28;20455;-64
2021/11/29 00:45:58;;;;;;;31.90;21.33;;;2.70;99.90;;;;;;4968752;28;20450;-64
2021/11/29 00:48:24;;;;;;;32.60;21.03;;;2.60;99.90;;;;;;4971789;28;20468;-65
2021/11/29 00:50:51;;;;;;;34.30;21.43;;;2.60;99.90;;;;;;4972626;28;20484;-64
2021/11/29 00:53:18;;;;;;;31.80;21.30;;;2.60;99.90;;;;;;4972579;28;20456;-65
2021/11/29 00:55:45;;;;;;;31.90;22.07;;;2.60;99.90;;;;;;4972479;28;20453;-64
2021/11/29 00:58:12;;;;;;;27.90;19.50;;;2.70;99.90;;;;;;4971983;28;20491;-65
2021/11/29 01:00:40;;;;;;;32.20;21.10;;;2.80;99.90;;;;;;4972528;28;20450;-64
2021/11/29 01:03:09;;;;;;;25.80;19.23;;;2.80;99.90;;;;;;4972437;28;20448;-64
2021/11/29 01:05:36;;;;;;;30.10;21.03;;;2.80;99.90;;;;;;4972046;28;20451;-64
2021/11/29 01:08:04;;;;;;;30.33;20.93;;;2.80;99.90;;;;;;4971795;28;21013;-63
2021/11/29 01:10:32;;;;;;;27.10;18.93;;;2.80;99.90;;;;;;4972365;28;20474;-64
2021/11/29 01:12:59;;;;;;;28.67;20.10;;;2.80;99.90;;;;;;4972122;28;20839;-64
2021/11/29 01:15:29;;;;;;;28.07;19.93;;;2.80;99.90;;;;;;4972155;28;20518;-64
2021/11/29 01:17:56;;;;;;;28.10;20.90;;;2.80;99.90;;;;;;4971276;28;21018;-62
2021/11/29 01:20:24;;;;;;;28.93;19.20;;;2.80;99.90;;;;;;4971782;28;20538;-64
2021/11/29 01:22:51;;;;;;;30.77;21.27;;;2.80;99.90;;;;;;4972043;28;20867;-65
2021/11/29 01:25:18;;;;;;;27.60;19.63;;;2.80;99.90;;;;;;4971751;28;20462;-65
2021/11/29 01:27:45;;;;;;;29.10;20.17;;;2.80;99.90;;;;;;4971205;28;20477;-64
2021/11/29 01:30:12;;;;;;;28.90;20.23;;;2.80;99.90;;;;;;4971609;28;20444;-64
2021/11/29 01:32:39;;;;;;;27.87;19.70;;;2.80;99.90;;;;;;4971673;28;20443;-64
2021/11/29 01:35:08;;;;;;;30.20;20.80;;;2.80;99.90;;;;;;4971584;28;20458;-64
2021/11/29 01:37:36;;;;;;;29.50;20.40;;;2.80;99.90;;;;;;4971023;28;20548;-63
2021/11/29 01:40:04;;;;;;;26.90;19.87;;;2.80;99.90;;;;;;4971599;28;20494;-64
2021/11/29 01:42:31;;;;;;;28.33;19.60;;;2.70;99.90;;;;;;4971396;28;20449;-64
2021/11/29 01:44:59;;;;;;;29.90;20.47;;;2.80;99.90;;;;;;4971559;28;20215;-63
2021/11/29 01:47:26;;;;;;;33.37;22.17;;;2.70;99.90;;;;;;4970934;28;20549;-63
2021/11/29 01:49:53;;;;;;;36.23;22.97;;;2.60;99.90;;;;;;4971135;28;20472;-64
2021/11/29 01:52:20;;;;;;;33.20;21.70;;;2.50;99.90;;;;;;4971139;28;20483;-64
2021/11/29 01:54:48;;;;;;;28.87;21.10;;;2.40;99.90;;;;;;4971305;28;20468;-65
2021/11/29 01:57:15;;;;;;;31.60;21.67;;;2.40;99.90;;;;;;4970391;28;20455;-65
2021/11/29 01:59:43;;;;;;;32.40;22.00;;;2.30;99.90;;;;;;4971218;28;20486;-69
2021/11/29 02:02:12;;;;;;;33.30;21.77;;;2.30;99.90;;;;;;4971100;28;20451;-64
2021/11/29 02:04:39;;;;;;;34.47;23.87;;;2.30;99.90;;;;;;4970999;28;20463;-64
2021/11/29 02:07:06;;;;;;;33.50;22.27;;;2.40;99.90;;;;;;4970329;28;20463;-65
2021/11/29 02:09:33;;;;;;;34.83;24.00;;;2.40;99.90;;;;;;4970918;28;20568;-64
2021/11/29 02:12:01;;;;;;;30.90;21.83;;;2.40;99.90;;;;;;4971004;28;20453;-65
2021/11/29 02:14:27;;;;;;;34.20;22.30;;;2.40;99.90;;;;;;4970634;28;20456;-65
2021/11/29 02:16:54;;;;;;;36.50;22.20;;;2.50;99.90;;;;;;4970638;28;20548;-64
2021/11/29 02:19:23;;;;;;;35.10;22.50;;;2.50;99.90;;;;;;4970289;28;20996;-64
2021/11/29 02:21:51;;;;;;;29.97;20.40;;;2.50;99.90;;;;;;4970881;28;20453;-64
2021/11/29 02:24:18;;;;;;;30.53;20.87;;;2.50;99.90;;;;;;4970417;28;20460;-65
2021/11/29 02:26:45;;;;;;;33.43;21.50;;;2.40;99.90;;;;;;4970523;28;20930;-63
2021/11/29 02:29:14;;;;;;;34.63;22.97;;;2.50;99.90;;;;;;4970471;28;20831;-64
2021/11/29 02:31:44;;;;;;;30.77;21.93;;;2.50;99.90;;;;;;4970422;28;21038;-64
2021/11/29 02:34:14;;;;;;;34.30;21.67;;;2.60;99.90;;;;;;4970268;28;20451;-64
2021/11/29 02:36:42;;;;;;;34.47;22.93;;;2.60;99.90;;;;;;4970399;28;20467;-64
2021/11/29 02:39:13;;;;;;;32.83;21.43;;;2.70;99.90;;;;;;4970176;28;20906;-65
2021/11/29 02:41:41;;;;;;;36.37;23.20;;;2.60;99.90;;;;;;4970770;28;20470;-64
2021/11/29 02:44:08;;;;;;;36.50;24.10;;;2.60;99.90;;;;;;4970591;28;20464;-64
2021/11/29 02:46:35;;;;;;;35.20;23.87;;;2.60;99.90;;;;;;4969928;28;20456;-64
2021/11/29 02:49:03;;;;;;;36.03;21.63;;;2.60;99.90;;;;;;4970001;28;20468;-63
2021/11/29 02:51:33;;;;;;;35.13;23.97;;;2.60;99.90;;;;;;4970510;28;20458;-65
2021/11/29 02:54:04;;;;;;;35.50;22.50;;;2.60;99.90;;;;;;4970627;28;20447;-64
2021/11/29 02:56:36;;;;;;;36.90;24.63;;;2.60;99.90;;;;;;4969906;28;21165;-64
2021/11/29 02:59:04;;;;;;;39.13;24.33;;;2.60;99.90;;;;;;4969833;28;20574;-64
2021/11/29 03:01:31;;;;;;;38.47;25.70;;;2.60;99.90;;;;;;4970178;28;20452;-64
2021/11/29 03:03:58;;;;;;;40.13;25.20;;;2.60;99.90;;;;;;4970113;28;20460;-64
2021/11/29 03:06:25;;;;;;;30.83;22.37;;;2.60;99.90;;;;;;4969651;28;20896;-64
2021/11/29 03:08:51;;;;;;;35.07;24.47;;;2.60;99.90;;;;;;4969360;28;20471;-65
2021/11/29 03:11:19;;;;;;;35.67;24.97;;;2.60;99.90;;;;;;4969528;28;20480;-64
2021/11/29 03:13:48;;;;;;;33.60;24.17;;;2.60;99.90;;;;;;4970043;28;20448;-64
2021/11/29 03:16:16;;;;;;;38.03;25.83;;;2.70;99.90;;;;;;4969933;28;20445;-62
2021/11/29 03:18:44;;;;;;;36.33;24.70;;;2.60;99.90;;;;;;4969785;28;20476;-64
2021/11/29 03:21:14;;;;;;;36.10;22.43;;;2.60;99.90;;;;;;4969738;28;20451;-63
2021/11/29 03:23:42;;;;;;;36.33;23.70;;;2.60;99.90;;;;;;4969653;28;20926;-64
2021/11/29 03:26:15;;;;;;;35.00;25.77;;;2.50;99.90;;;;;;4969244;28;20444;-64
2021/11/29 03:28:43;;;;;;;36.73;22.60;;;2.40;99.90;;;;;;4969436;28;20986;-64
2021/11/29 03:31:12;;;;;;;34.83;24.17;;;2.30;99.90;;;;;;4969562;28;20459;-64
2021/11/29 03:33:42;;;;;;;30.00;21.97;;;2.20;99.90;;;;;;4969609;28;20500;-64
2021/11/29 03:36:09;;;;;;;32.70;21.37;;;2.20;99.90;;;;;;4969233;28;20444;-65
2021/11/29 03:38:36;;;;;;;29.60;21.00;;;2.10;99.90;;;;;;4968686;28;20505;-63
2021/11/29 03:41:04;;;;;;;35.27;24.40;;;2.10;99.90;;;;;;4969435;28;20448;-64
2021/11/29 03:43:31;;;;;;;35.50;23.47;;;2.10;99.90;;;;;;4967105;28;20436;-64
2021/11/29 03:45:59;;;;;;;34.17;23.37;;;2.10;99.90;;;;;;4969020;28;21154;-64
2021/11/29 03:48:27;;;;;;;35.10;22.00;;;2.20;99.90;;;;;;4968757;28;20479;-64
2021/11/29 03:50:54;;;;;;;36.93;22.50;;;2.20;99.90;;;;;;4969086;28;20458;-64
2021/11/29 03:53:21;;;;;;;32.20;22.63;;;2.20;99.90;;;;;;4969025;28;20919;-65
2021/11/29 03:55:48;;;;;;;32.23;21.80;;;2.20;99.90;;;;;;4969137;28;20440;-65
2021/11/29 03:58:15;;;;;;;33.73;22.50;;;2.20;99.90;;;;;;4968898;28;20467;-64
2021/11/29 04:00:42;;;;;;;36.13;22.97;;;2.20;99.90;;;;;;4969118;28;20485;-65
2021/11/29 04:03:09;;;;;;;31.47;22.47;;;2.30;99.90;;;;;;4969238;28;20455;-64
2021/11/29 04:05:37;;;;;;;28.67;20.60;;;2.30;99.90;;;;;;4969466;28;20452;-64
2021/11/29 04:08:04;;;;;;;38.10;25.97;;;2.20;99.90;;;;;;4969090;28;20463;-64
2021/11/29 04:10:32;;;;;;;36.20;24.00;;;2.30;99.90;;;;;;4969082;28;20440;-65
2021/11/29 04:12:58;;;;;;;31.10;22.07;;;2.30;99.90;;;;;;4968981;28;20439;-64
2021/11/29 04:15:26;;;;;;;34.20;22.33;;;2.30;99.90;;;;;;4968991;28;21201;-65
2021/11/29 04:17:52;;;;;;;32.63;22.60;;;2.30;99.90;;;;;;4968923;28;20464;-65
2021/11/29 04:20:20;;;;;;;34.13;21.73;;;2.30;99.90;;;;;;4968892;28;20487;-64
2021/11/29 04:22:49;;;;;;;30.93;19.60;;;2.30;99.90;;;;;;4973174;28;20455;-63
2021/11/29 04:25:19;;;;;;;31.33;22.60;;;2.30;99.90;;;;;;4973085;28;20876;-64
2021/11/29 04:27:47;;;;;;;30.43;19.80;;;2.30;99.90;;;;;;4972972;28;20472;-65
2021/11/29 04:30:19;;;;;;;32.33;19.17;;;2.30;99.90;;;;;;4973044;28;21205;-63
2021/11/29 04:32:51;;;;;;;32.97;20.40;;;2.40;99.90;;;;;;4972964;28;20448;-64
2021/11/29 04:35:18;;;;;;;29.43;18.97;;;2.30;99.90;;;;;;4972983;28;20447;-64
2021/11/29 04:37:46;;;;;;;29.87;19.40;;;2.30;99.90;;;;;;4972275;28;20477;-64
2021/11/29 04:40:14;;;;;;;29.23;20.80;;;2.40;99.90;;;;;;4972859;28;20488;-63
2021/11/29 04:42:41;;;;;;;30.70;20.43;;;2.40;99.90;;;;;;4972825;28;20535;-64
2021/11/29 04:45:09;;;;;;;30.97;21.00;;;2.40;99.90;;;;;;4972800;28;20458;-64
2021/11/29 04:47:37;;;;;;;30.43;19.33;;;2.40;99.90;;;;;;4972672;28;20443;-64
2021/11/29 04:50:04;;;;;;;32.77;21.80;;;2.40;99.90;;;;;;4972626;28;20826;-64
2021/11/29 04:52:31;;;;;;;30.00;18.70;;;2.40;99.90;;;;;;4972790;28;20482;-64
2021/11/29 04:54:58;;;;;;;31.67;19.90;;;2.40;99.90;;;;;;4972558;28;20961;-64
2021/11/29 04:57:26;;;;;;;33.63;20.13;;;2.40;99.90;;;;;;4971928;28;20443;-64
2021/11/29 04:59:55;;;;;;;27.87;19.60;;;2.50;99.90;;;;;;4972381;28;20480;-64
2021/11/29 05:02:22;;;;;;;32.93;21.07;;;2.50;99.90;;;;;;4972722;28;20537;-63
2021/11/29 05:04:49;;;;;;;32.80;20.57;;;2.50;99.90;;;;;;4972476;28;20444;-64
2021/11/29 05:07:16;;;;;;;32.57;20.70;;;2.50;99.90;;;;;;4972043;28;20548;-63
2021/11/29 05:09:44;;;;;;;30.20;19.73;;;2.50;99.90;;;;;;4972388;28;20459;-63
2021/11/29 05:12:14;;;;;;;28.60;20.27;;;2.40;99.90;;;;;;4972180;28;20815;-64
2021/11/29 05:14:42;;;;;;;31.13;20.57;;;2.40;99.90;;;;;;4972146;28;21023;-64
2021/11/29 05:17:09;;;;;;;27.17;18.97;;;2.40;99.90;;;;;;4971688;28;20448;-64
2021/11/29 05:19:36;;;;;;;32.40;20.70;;;2.40;99.90;;;;;;4972186;28;20483;-63
2021/11/29 05:22:03;;;;;;;31.90;20.63;;;2.40;99.90;;;;;;4971871;28;20444;-63
2021/11/29 05:24:30;;;;;;;32.80;21.90;;;2.40;99.90;;;;;;4970251;28;20444;-63
2021/11/29 05:26:56;;;;;;;31.67;18.03;;;2.40;99.90;;;;;;4969676;28;20472;-63
2021/11/29 05:29:23;;;;;;;26.80;19.33;;;2.40;99.90;;;;;;4972462;28;20466;-66
2021/11/29 05:31:51;;;;;;;36.10;20.43;;;2.40;99.90;;;;;;4972587;28;20478;-63
2021/11/29 05:34:19;;;;;;;32.53;20.37;;;2.40;99.90;;;;;;4972475;28;20443;-64
2021/11/29 05:36:46;;;;;;;32.33;21.07;;;2.40;99.90;;;;;;4972903;28;20448;-64
2021/11/29 05:39:15;;;;;;;30.97;19.70;;;2.40;99.90;;;;;;4972943;28;20468;-63
2021/11/29 05:41:42;;;;;;;32.70;20.33;;;2.40;99.90;;;;;;4972678;28;20487;-64
2021/11/29 05:44:09;;;;;;;33.70;21.37;;;2.40;99.90;;;;;;4972309;28;20467;-62
2021/11/29 05:46:36;;;;;;;31.60;20.10;;;2.50;99.90;;;;;;4971850;28;20824;-64
2021/11/29 05:49:04;;;;;;;28.07;20.60;;;2.40;99.90;;;;;;4971618;28;20478;-62
2021/11/29 05:51:31;;;;;;;32.07;20.07;;;2.40;99.90;;;;;;4972005;28;20456;-63
2021/11/29 05:53:58;;;;;;;33.37;18.87;;;2.40;99.90;;;;;;4970791;28;20444;-64
2021/11/29 05:56:25;;;;;;;34.40;21.20;;;2.40;99.90;;;;;;4969410;28;20436;-61
2021/11/29 05:58:52;;;;;;;32.13;20.40;;;2.40;99.90;;;;;;4970969;28;20470;-63
2021/11/29 06:01:21;;;;;;;32.90;18.97;;;2.40;99.90;;;;;;4970999;28;20511;-64
2021/11/29 06:03:49;;;;;;;30.33;19.27;;;2.40;99.90;;;;;;4970890;28;20443;-65
2021/11/29 06:06:17;;;;;;;32.23;21.77;;;2.30;99.90;;;;;;4953352;28;20923;-63
2021/11/29 06:08:44;;;;;;;30.60;20.33;;;2.40;99.90;;;;;;4966794;28;21212;-63
2021/11/29 06:11:11;;;;;;;35.17;20.40;;;2.30;99.90;;;;;;4968425;28;20450;-63
2021/11/29 06:13:38;;;;;;;34.30;20.20;;;2.30;99.90;;;;;;4977415;28;20470;-64
2021/11/29 06:16:05;;;;;;;28.17;18.23;;;2.40;99.90;;;;;;4971532;28;20461;-64
2021/11/29 06:18:32;;;;;;;31.00;18.57;;;2.40;99.90;;;;;;4970527;28;20468;-63
2021/11/29 06:20:59;;;;;;;30.40;18.20;;;2.40;99.90;;;;;;4970387;28;20484;-63
2021/11/29 06:23:27;;;;;;;27.60;17.00;;;2.40;99.90;;;;;;4973837;28;20452;-63
2021/11/29 06:25:54;;;;;;;28.03;17.57;;;2.30;99.90;;;;;;4974771;28;20456;-64
2021/11/29 06:28:21;;;;;;;29.23;19.00;;;2.30;99.90;;;;;;4969980;28;20806;-64
2021/11/29 06:30:48;;;;;;;28.30;16.37;;;2.30;99.90;;;;;;4971825;28;20449;-64
2021/11/29 06:33:15;;;;;;;26.00;17.30;;;2.30;99.90;;;;;;4971179;28;20448;-63
2021/11/29 06:35:41;;;;;;;30.10;16.50;;;2.30;99.90;;;;;;4970191;28;20443;-64
2021/11/29 06:38:08;;;;;;;29.13;16.40;;;2.30;99.90;;;;;;4970301;28;20926;-63
2021/11/29 06:40:37;;;;;;;25.47;15.93;;;2.30;99.90;;;;;;4970260;28;20476;-64
2021/11/29 06:43:04;;;;;;;24.37;15.37;;;2.30;99.90;;;;;;4970486;28;20450;-64
2021/11/29 06:45:31;;;;;;;26.27;15.40;;;2.30;99.90;;;;;;4970381;28;20444;-70
2021/11/29 06:47:58;;;;;;;26.00;16.03;;;2.30;99.90;;;;;;4973350;28;20844;-64
2021/11/29 06:50:25;;;;;;;26.00;14.93;;;2.30;99.90;;;;;;4969857;28;20490;-64
2021/11/29 06:52:52;;;;;;;30.87;15.23;;;2.30;99.90;;;;;;4974182;28;20507;-65
2021/11/29 06:55:20;;;;;;;27.17;17.50;;;2.30;99.90;;;;;;4966591;28;20957;-64
2021/11/29 06:57:49;;;;;;;22.23;15.70;;;2.30;99.90;;;;;;4970892;28;21227;-65
2021/11/29 07:00:21;;;;;;;20.93;14.63;;;2.30;99.90;;;;;;4967739;28;20935;-64
2021/11/29 07:02:48;;;;;;;26.03;14.70;;;2.30;99.90;;;;;;4969478;28;20466;-65
2021/11/29 07:05:15;;;;;;;22.30;15.13;;;2.30;99.90;;;;;;4968226;28;20926;-66
2021/11/29 07:07:44;;;;;;;25.13;14.87;;;2.30;99.90;;;;;;4969410;28;20474;-65
2021/11/29 07:10:12;;;;;;;27.00;16.27;;;2.30;99.90;;;;;;4968808;28;20451;-66
2021/11/29 07:12:41;;;;;;;23.33;15.50;;;2.20;99.90;;;;;;4968361;28;20461;-65
2021/11/29 07:15:11;;;;;;;20.63;14.07;;;2.20;99.90;;;;;;4969829;28;21027;-66
2021/11/29 07:17:38;;;;;;;19.27;13.43;;;2.30;99.90;;;;;;4969824;28;20456;-65
2021/11/29 07:20:06;;;;;;;20.93;13.40;;;2.30;99.90;;;;;;4969572;28;20704;-65
2021/11/29 07:22:33;;;;;;;25.37;15.10;;;2.30;99.90;;;;;;4969735;28;21117;-66
2021/11/29 07:25:03;;;;;;;20.23;13.10;;;2.30;99.90;;;;;;4969947;28;20456;-67
2021/11/29 07:27:31;;;;;;;20.40;12.17;;;2.30;99.90;;;;;;4969172;28;20447;-64
2021/11/29 07:29:58;;;;;;;20.53;12.50;;;2.30;99.90;;;;;;4969408;28;20479;-66
2021/11/29 07:32:29;;;;;;;23.87;12.17;;;2.30;99.90;;;;;;4969522;28;20542;-64
2021/11/29 07:34:56;;;;;;;18.75;13.02;;;2.40;99.90;;;;;;4969736;28;20451;-65
2021/11/29 07:37:23;;;;;;;21.43;12.53;;;2.40;99.90;;;;;;4968944;28;20213;-65
2021/11/29 07:39:52;;;;;;;17.88;12.68;;;2.40;99.90;;;;;;4969483;28;20976;-66
2021/11/29 07:42:20;;;;;;;16.40;11.30;;;2.40;99.90;;;;;;4969090;28;20202;-67
2021/11/29 07:44:47;;;;;;;19.90;11.97;;;2.40;99.90;;;;;;4969142;28;20471;-67
2021/11/29 07:47:13;;;;;;;16.87;10.97;;;2.40;99.90;;;;;;4969106;28;20462;-67
2021/11/29 07:49:42;;;;;;;17.37;12.00;;;2.40;99.90;;;;;;4969035;28;21015;-66
2021/11/29 07:52:09;;;;;;;19.67;11.00;;;2.40;99.90;;;;;;4969285;28;20452;-67
2021/11/29 07:54:36;;;;;;;17.53;11.13;;;2.40;99.90;;;;;;4969067;28;20531;-66
2021/11/29 07:57:03;;;;;;;20.27;11.70;;;2.40;99.90;;;;;;4968161;28;20535;-66
2021/11/29 07:59:31;;;;;;;17.50;10.93;;;2.40;99.90;;;;;;4968915;28;20551;-66
2021/11/29 08:01:59;;;;;;;16.37;10.30;;;2.40;99.90;;;;;;4968780;28;20488;-66
2021/11/29 08:04:25;;;;;;;13.73;9.63;;;2.30;99.90;;;;;;4968985;28;20956;-66
2021/11/29 08:06:54;;;;;;;13.33;9.73;;;2.30;99.90;;;;;;4968801;28;20547;-65
2021/11/29 08:09:21;;;;;;;16.07;10.03;;;2.30;99.90;;;;;;4969439;28;20496;-66
2021/11/29 08:11:48;;;;;;;15.23;9.80;;;2.30;99.90;;;;;;4969042;28;20946;-67
2021/11/29 08:14:15;;;;;;;15.27;9.00;;;2.30;99.90;;;;;;4968782;28;20462;-66
2021/11/29 08:16:42;;;;;;;19.23;9.27;;;2.30;99.90;;;;;;4968524;28;20436;-68
2021/11/29 08:19:09;;;;;;;15.23;10.30;;;2.30;99.90;;;;;;4968875;28;21005;-67
2021/11/29 08:21:35;;;;;;;12.30;9.03;;;2.30;99.90;;;;;;4968634;28;20491;-66
2021/11/29 08:24:05;;;;;;;18.87;10.67;;;2.40;99.90;;;;;;4968599;28;21010;-66
2021/11/29 08:26:32;;;;;;;24.27;11.63;;;2.40;99.90;;;;;;4968532;28;20472;-66
2021/11/29 08:28:58;;;;;;;14.67;9.47;;;2.50;99.90;;;;;;4968993;28;20579;-66
2021/11/29 08:31:25;;;;;;;17.10;10.47;;;2.50;99.90;;;;;;4969067;28;20552;-66
2021/11/29 08:33:52;;;;;;;16.37;9.73;;;2.60;99.90;;;;;;4968930;28;20885;-68
2021/11/29 08:36:19;;;;;;;19.40;10.63;;;2.70;99.90;;;;;;4968763;28;20553;-66
2021/11/29 08:38:46;;;;;;;16.53;8.80;;;2.70;99.90;;;;;;4968808;28;20492;-66
2021/11/29 08:41:16;;;;;;;16.63;9.43;;;2.80;99.90;;;;;;4968770;28;21001;-66
2021/11/29 08:43:44;;;;;;;16.47;9.97;;;2.80;99.90;;;;;;4968634;28;20531;-68
2021/11/29 08:46:11;;;;;;;13.20;8.83;;;2.80;99.90;;;;;;4968833;28;20460;-66
2021/11/29 08:48:37;;;;;;;14.93;9.00;;;2.90;99.90;;;;;;4968485;28;20592;-66
2021/11/29 08:51:04;;;;;;;14.33;8.70;;;2.90;99.90;;;;;;4967893;28;20460;-66
2021/11/29 08:53:31;;;;;;;14.70;8.60;;;3.00;99.90;;;;;;4968490;28;20951;-66
2021/11/29 08:55:59;;;;;;;11.00;8.20;;;2.90;99.90;;;;;;4968657;28;20451;-66
2021/11/29 08:58:27;;;;;;;11.30;8.10;;;2.90;99.90;;;;;;4967977;28;20975;-66
2021/11/29 09:00:55;;;;;;;15.20;8.03;;;2.80;99.90;;;;;;4968557;28;20822;-66
2021/11/29 09:03:22;;;;;;;16.37;9.10;;;2.70;99.90;;;;;;4968539;28;20440;-66
2021/11/29 09:05:50;;;;;;;11.63;8.23;;;2.60;99.90;;;;;;4968559;28;20452;-67
2021/11/29 09:08:18;;;;;;;17.90;8.67;;;2.50;99.90;;;;;;4969600;28;20468;-67
2021/11/29 09:10:46;;;;;;;14.50;8.30;;;2.50;99.90;;;;;;4972182;28;20440;-66
2021/11/29 09:13:13;;;;;;;16.40;9.90;;;2.40;99.90;;;;;;4972205;28;20546;-67
2021/11/29 09:15:44;;;;;;;11.90;8.20;;;2.50;99.90;;;;;;4972069;28;20441;-67
2021/11/29 09:18:12;;;;;;;13.53;8.07;;;2.70;99.90;;;;;;4971535;28;20482;-66
2021/11/29 09:20:40;;;;;;;14.00;7.80;;;2.90;99.90;;;;;;4971874;28;20483;-66
2021/11/29 09:23:07;;;;;;;10.33;7.20;;;3.10;99.90;;;;;;4971864;28;20456;-66
2021/11/29 09:25:40;;;;;;;13.63;8.40;;;3.20;99.90;;;;;;4972052;28;20671;-67
2021/11/29 09:28:08;;;;;;;12.57;7.30;;;3.30;99.90;;;;;;4971645;28;20461;-66
2021/11/29 09:30:35;;;;;;;10.83;6.67;;;3.30;99.90;;;;;;4971737;28;20444;-66
2021/11/29 09:33:04;;;;;;;13.00;7.77;;;3.40;99.90;;;;;;4971598;28;20455;-67
2021/11/29 09:35:30;;;;;;;9.85;6.85;;;3.40;99.90;;;;;;4972174;28;20453;-67
2021/11/29 09:37:58;;;;;;;15.50;5.73;;;3.30;99.90;;;;;;4971494;28;20581;-66
2021/11/29 09:40:26;;;;;;;14.17;7.37;;;3.30;99.90;;;;;;4971277;28;21109;-67
2021/11/29 09:42:53;;;;;;;10.45;6.38;;;3.40;99.90;;;;;;4971545;28;20477;-67
2021/11/29 09:45:23;;;;;;;6.67;4.73;;;3.40;99.90;;;;;;4971325;28;20228;-68
2021/11/29 09:47:50;;;;;;;9.60;5.83;;;3.50;99.90;;;;;;4970966;28;20979;-64
2021/11/29 09:50:19;;;;;;;8.90;5.10;;;3.60;99.90;;;;;;4971277;28;20470;-65
2021/11/29 09:52:46;;;;;;;8.50;5.83;;;3.60;99.90;;;;;;4971648;28;20442;-64
2021/11/29 09:55:16;;;;;;;8.63;5.80;;;3.60;99.90;;;;;;4971259;28;20446;-65
2021/11/29 09:57:44;;;;;;;9.10;5.17;;;3.60;99.90;;;;;;4971114;28;20472;-65
2021/11/29 10:00:15;;;;;;;13.47;6.00;;;3.60;99.90;;;;;;4971654;28;20451;-65
2021/11/29 10:02:42;;;;;;;19.70;7.77;;;3.50;99.90;;;;;;4971192;28;20517;-65
2021/11/29 10:05:09;;;;;;;10.13;5.80;;;3.60;99.90;;;;;;4970824;28;20454;-65
2021/11/29 10:07:39;;;;;;;11.30;5.70;;;3.90;99.90;;;;;;4970460;28;20447;-65
2021/11/29 10:10:12;;;;;;;8.60;5.00;;;4.10;99.90;;;;;;4971153;28;20810;-65
2021/11/29 10:12:40;;;;;;;12.27;6.00;;;4.20;99.90;;;;;;4971578;28;20531;-64
2021/11/29 10:15:14;;;;;;;7.82;4.72;;;4.20;99.90;;;;;;4970829;28;20460;-65
2021/11/29 10:17:41;;;;;;;7.53;4.70;;;4.30;99.90;;;;;;4970394;28;20232;-65
2021/11/29 10:20:09;;;;;;;10.43;4.30;;;4.30;99.90;;;;;;4970580;28;20465;-64
2021/11/29 10:22:37;;;;;;;10.00;5.40;;;4.20;99.90;;;;;;4970547;28;20520;-65
2021/11/29 10:25:16;;;;;;;10.60;5.47;;;4.10;99.90;;;;;;4970748;28;20538;-64
2021/11/29 10:27:45;;;;;;;6.70;4.40;;;4.10;99.90;;;;;;4970286;28;20475;-65
2021/11/29 10:30:16;;;;;;;6.07;4.10;;;4.10;99.90;;;;;;4970738;28;20818;-65
2021/11/29 10:32:45;;;;;;;7.80;4.73;;;4.10;99.90;;;;;;4970818;28;20470;-64
2021/11/29 10:35:14;;;;;;;8.27;4.70;;;4.20;99.90;;;;;;4970575;28;20451;-65
2021/11/29 10:37:46;;;;;;;8.90;4.87;;;4.20;99.90;;;;;;4970251;28;20578;-65
2021/11/29 10:40:15;;;;;;;7.93;4.80;;;4.20;99.90;;;;;;4970360;28;20455;-65
2021/11/29 10:42:42;;;;;;;8.73;5.40;;;4.10;99.90;;;;;;4969896;28;20537;-65
2021/11/29 10:45:20;;;;;;;8.40;4.80;;;4.20;99.90;;;;;;4970200;28;21017;-65
2021/11/29 10:47:49;;;;;;;13.03;4.20;;;4.30;99.90;;;;;;4969844;28;20463;-64
2021/11/29 10:50:16;;;;;;;7.53;5.60;;;4.30;99.90;;;;;;4970057;28;20466;-66
2021/11/29 10:52:47;;;;;;;7.83;5.23;;;4.20;99.90;;;;;;4970287;28;20447;-64
2021/11/29 10:55:14;;;;;;;8.47;5.27;;;4.10;99.90;;;;;;4970166;28;20646;-65
2021/11/29 10:57:47;;;;;;;9.10;4.93;;;4.10;99.90;;;;;;4969555;28;21040;-66
2021/11/29 11:00:17;;;;;;;8.13;4.80;;;4.10;99.90;;;;;;4969956;28;20476;-65
2021/11/29 11:03:01;;;;;;;7.77;4.77;;;4.00;99.90;;;;;;4969878;28;20515;-64
2021/11/29 11:05:28;;;;;;;9.40;5.30;;;4.00;99.90;;;;;;4969894;28;20443;-65
2021/11/29 11:08:09;;;;;;;6.40;4.63;;;3.90;99.90;;;;;;4969655;28;20471;-64
2021/11/29 11:10:36;;;;;;;8.83;5.50;;;3.90;99.90;;;;;;4970238;28;20515;-67
2021/11/29 11:13:04;;;;;;;10.07;6.73;;;3.90;99.90;;;;;;4970319;28;20451;-66
2021/11/29 11:15:42;;;;;;;9.00;5.13;;;3.80;99.90;;;;;;4969627;28;20846;-66
2021/11/29 11:18:10;;;;;;;8.17;5.87;;;3.80;99.90;;;;;;4969600;28;20490;-66
2021/11/29 11:20:37;;;;;;;9.30;6.40;;;3.70;99.90;;;;;;4969663;28;20925;-65
2021/11/29 11:23:05;;;;;;;8.10;5.43;;;3.60;99.90;;;;;;4969507;28;21127;-65
2021/11/29 11:25:35;;;;;;;9.87;5.47;;;3.50;99.90;;;;;;4969517;28;20440;-65
2021/11/29 11:28:05;;;;;;;8.30;5.57;;;3.60;99.90;;;;;;4969147;28;20465;-66
2021/11/29 11:30:34;;;;;;;9.60;6.13;;;3.60;99.90;;;;;;4968503;28;20513;-65
2021/11/29 11:33:04;;;;;;;9.67;6.33;;;3.70;99.90;;;;;;4969530;28;20437;-66
2021/11/29 11:35:33;;;;;;;6.87;4.30;;;3.80;99.90;;;;;;4969767;28;20483;-65
2021/11/29 11:38:03;;;;;;;8.83;5.57;;;3.90;99.90;;;;;;4969254;28;20470;-66
2021/11/29 11:40:33;;;;;;;6.53;5.07;;;4.10;99.90;;;;;;4970112;28;20440;-65
2021/11/29 11:43:01;;;;;;;10.33;5.47;;;4.00;99.90;;;;;;4969526;28;20479;-65
2021/11/29 11:45:31;;;;;;;8.00;5.73;;;3.90;99.90;;;;;;4969120;28;20454;-66
2021/11/29 11:47:59;;;;;;;8.60;5.60;;;4.00;99.90;;;;;;4969030;28;20464;-65
2021/11/29 11:50:30;;;;;;;7.10;4.63;;;4.10;99.90;;;;;;4968810;28;20938;-66
2021/11/29 11:52:59;;;;;;;12.57;5.70;;;4.30;99.90;;;;;;4968952;28;20540;-66
2021/11/29 11:55:31;;;;;;;10.90;5.73;;;4.30;99.90;;;;;;4968848;28;20462;-66
2021/11/29 11:58:02;;;;;;;14.07;6.10;;;4.40;99.90;;;;;;4968649;28;20903;-66
2021/11/29 12:00:33;;;;;;;13.57;5.47;;;4.30;99.90;;;;;;4969285;28;20549;-66
2021/11/29 12:03:18;;;;;;;9.00;6.17;;;4.20;99.90;;;;;;4969394;28;21062;-67
2021/11/29 12:05:52;;;;;;;7.80;5.53;;;4.20;99.90;;;;;;4969177;28;20454;-66
2021/11/29 12:08:41;;;;;;;11.00;6.13;;;4.20;99.90;;;;;;4968975;28;20551;-65
2021/11/29 12:11:35;;;;;;;7.60;5.50;;;4.30;99.90;;;;;;4969296;28;20508;-66
2021/11/29 12:14:10;;;;;;;9.77;5.57;;;4.10;99.90;;;;;;4969104;28;20437;-66
2021/11/29 12:16:39;;;;;;;8.80;5.30;;;4.00;99.90;;;;;;4969524;28;20439;-67
2021/11/29 12:19:07;;;;;;;11.00;6.17;;;4.10;99.90;;;;;;4969734;28;20464;-66
2021/11/29 12:21:38;;;;;;;11.10;8.13;;;4.10;99.90;;;;;;4969632;28;20491;-66
2021/11/29 12:24:09;;;;;;;11.40;6.80;;;4.10;99.90;;;;;;4969725;28;20450;-67
2021/11/29 12:27:01;;;;;;;10.77;6.23;;;4.10;99.90;;;;;;4968763;28;20459;-67
2021/11/29 12:29:51;;;;;;;10.70;5.73;;;4.00;99.90;;;;;;4969780;28;20468;-66
2021/11/29 12:32:19;;;;;;;7.20;5.40;;;4.00;99.90;;;;;;4969718;28;20453;-67
2021/11/29 12:35:04;;;;;;;9.80;6.50;;;3.90;99.90;;;;;;4969450;28;20453;-65
2021/11/29 12:37:33;;;;;;;8.90;6.07;;;3.90;99.90;;;;;;4968713;28;20507;-66
2021/11/29 12:40:07;;;;;;;8.20;5.47;;;3.80;99.90;;;;;;4968808;28;20532;-67
2021/11/29 12:42:54;;;;;;;9.30;7.27;;;3.70;99.90;;;;;;4971023;28;20501;-65
2021/11/29 12:45:26;;;;;;;7.97;5.90;;;3.70;99.90;;;;;;4972788;28;20451;-67
2021/11/29 12:47:58;;;;;;;8.95;6.05;;;3.60;99.90;;;;;;4972714;28;20987;-66
2021/11/29 12:50:44;;;;;;;13.60;7.00;;;3.60;99.90;;;;;;4976217;28;20212;-66